Phnom Penh, Cambodia
Current Conditions -  °F | °C
As of 10:00 PM on Tuesday 21 Oct 2014 (Local Time) from VDPP Reporting Station
Few Clouds Few Clouds  
Wind Chill: 84°   Ceiling: Unl
Heat Index: 96°   Visibility: 6mi
Dew Point: 79°   Wind: 1mph
Humidity: 84%   Direction: NA
Pressure: 29.85"   Gusts: NA
Location:  11.56°N, 104.92°E
Report Text: VDPP 211500Z VRB01KT 9000 FEW015 FEW017CB 29/26 Q1011 CB:E
Loading
Personal Weather Stations






























Interactive Weather Map New forecast layout! Learn more

10-Day Weather Forecast

Advertisements
Track Severe Weather on mobile